createdAt,value
2023-02-05T00:00:00.754Z,12.25
2023-02-05T00:02:27.147Z,11.77
2023-02-05T00:04:53.763Z,11.10
2023-02-05T00:07:20.128Z,13.00
2023-02-05T00:09:46.511Z,12.48
2023-02-05T00:12:12.895Z,13.32
2023-02-05T00:14:39.292Z,12.40
2023-02-05T00:17:08.132Z,11.93
2023-02-05T00:19:34.559Z,14.13
2023-02-05T00:22:00.951Z,12.00
2023-02-05T00:24:27.330Z,14.65
2023-02-05T00:26:53.811Z,15.90
2023-02-05T00:29:20.184Z,13.63
2023-02-05T00:31:49.587Z,12.88
2023-02-05T00:34:16.621Z,6.60
2023-02-05T00:36:43.065Z,5.82
2023-02-05T00:39:11.300Z,6.13
2023-02-05T00:41:38.430Z,4.22
2023-02-05T00:44:05.094Z,7.28
2023-02-05T00:46:31.522Z,4.95
2023-02-05T00:48:57.953Z,4.53
2023-02-05T00:51:24.427Z,6.30
2023-02-05T00:53:50.947Z,4.63
2023-02-05T00:56:17.333Z,5.78
2023-02-05T00:58:47.675Z,5.65
2023-02-05T01:01:14.815Z,4.38
2023-02-05T01:03:41.475Z,4.00
2023-02-05T01:06:08.283Z,4.07
2023-02-05T01:08:34.959Z,4.35
2023-02-05T01:11:01.399Z,4.85
2023-02-05T01:13:27.786Z,4.32
2023-02-05T01:15:54.239Z,5.38
2023-02-05T01:18:20.695Z,4.60
2023-02-05T01:20:47.198Z,4.60
2023-02-05T01:23:13.576Z,6.75
2023-02-05T01:25:40.125Z,5.68
2023-02-05T01:28:06.927Z,5.22
2023-02-05T01:30:33.916Z,6.30
2023-02-05T01:33:00.326Z,4.03
2023-02-05T01:35:26.765Z,5.03
2023-02-05T01:37:53.151Z,4.97
2023-02-05T01:40:19.690Z,6.00
2023-02-05T01:42:46.289Z,6.32
2023-02-05T01:45:21.623Z,5.10
2023-02-05T01:47:48.592Z,6.75
2023-02-05T01:50:16.449Z,5.68
2023-02-05T01:52:43.250Z,6.25
2023-02-05T01:55:09.693Z,4.60
2023-02-05T01:57:36.648Z,4.82
2023-02-05T02:00:05.029Z,6.35
2023-02-05T02:02:31.473Z,4.45
2023-02-05T02:05:04.089Z,6.30
2023-02-05T02:07:30.530Z,5.85
2023-02-05T02:09:56.946Z,9.13
2023-02-05T02:12:27.280Z,5.97
2023-02-05T02:14:55.778Z,4.75
2023-02-05T02:17:22.651Z,5.68
2023-02-05T02:19:55.250Z,3.90
2023-02-05T02:22:33.515Z,4.47
2023-02-05T02:25:04.650Z,4.28
2023-02-05T02:27:45.709Z,5.35
2023-02-05T02:30:20.547Z,6.35
2023-02-05T02:33:11.427Z,5.90
2023-02-05T02:35:51.440Z,4.20
2023-02-05T02:38:23.880Z,6.15
2023-02-05T02:43:30.304Z,6.97
2023-02-05T02:46:03.471Z,7.40
2023-02-05T02:48:30.962Z,8.75
2023-02-05T02:50:58.732Z,6.05
2023-02-05T02:53:28.708Z,7.28
2023-02-05T02:55:56.110Z,6.90
2023-02-05T02:58:25.944Z,10.38
2023-02-05T03:00:53.607Z,7.45
2023-02-05T03:03:21.920Z,8.57
2023-02-05T03:05:49.705Z,9.13
2023-02-05T03:08:45.394Z,10.30
2023-02-05T03:11:13.628Z,12.45
2023-02-05T03:13:40.838Z,12.18
2023-02-05T03:16:07.735Z,14.85
2023-02-05T03:18:34.217Z,11.90
2023-02-05T03:21:04.330Z,11.32
2023-02-05T03:23:31.011Z,11.75
2023-02-05T03:25:57.558Z,12.43
2023-02-05T03:28:24.176Z,14.15
2023-02-05T03:31:09.741Z,15.48
2023-02-05T03:33:52.350Z,13.30
2023-02-05T03:36:35.492Z,15.00
2023-02-05T03:39:20.017Z,15.07
2023-02-05T03:42:02.845Z,13.40
2023-02-05T03:44:47.927Z,13.20
2023-02-05T03:47:21.667Z,15.65
2023-02-05T03:50:09.928Z,18.10
2023-02-05T03:52:42.553Z,16.88
2023-02-05T03:55:21.197Z,19.85
2023-02-05T03:57:58.025Z,19.70
2023-02-05T04:00:25.390Z,14.70
2023-02-05T04:02:51.793Z,13.80
2023-02-05T04:05:20.950Z,14.40
2023-02-05T04:07:47.464Z,13.40
2023-02-05T04:10:13.899Z,14.40
2023-02-05T04:12:40.315Z,13.35
2023-02-05T04:15:08.976Z,15.00
2023-02-05T04:17:35.416Z,14.02
2023-02-05T04:20:01.864Z,11.95
2023-02-05T04:22:28.244Z,14.23
2023-02-05T04:24:54.640Z,12.63
2023-02-05T04:27:21.080Z,10.57
2023-02-05T04:29:47.549Z,11.15
2023-02-05T04:32:13.985Z,12.48
2023-02-05T04:34:40.388Z,14.45
2023-02-05T04:37:06.784Z,14.95
2023-02-05T04:39:33.442Z,13.30
2023-02-05T04:42:01.732Z,12.63
2023-02-05T04:44:28.200Z,14.45
2023-02-05T04:46:54.620Z,14.48
2023-02-05T04:49:21.133Z,13.85
2023-02-05T04:51:47.541Z,12.07
2023-02-05T04:54:14.085Z,12.88
2023-02-05T04:56:40.449Z,11.15
2023-02-05T04:59:06.882Z,17.75
2023-02-05T05:01:33.331Z,11.85
2023-02-05T05:03:59.738Z,9.50
2023-02-05T05:06:26.219Z,11.57
2023-02-05T05:08:54.244Z,15.00
2023-02-05T05:11:20.677Z,10.45
2023-02-05T05:13:49.192Z,17.90
2023-02-05T05:16:15.627Z,10.60
2023-02-05T05:18:42.198Z,13.73
2023-02-05T05:21:08.926Z,12.00
2023-02-05T05:23:36.564Z,9.88
2023-02-05T05:26:11.499Z,16.30
2023-02-05T05:28:38.195Z,14.75
2023-02-05T05:31:14.115Z,12.50
2023-02-05T05:33:40.549Z,12.90
2023-02-05T05:36:07.316Z,11.23
2023-02-05T05:38:33.750Z,16.52
2023-02-05T05:41:18.830Z,16.88
2023-02-05T05:43:48.175Z,15.35
2023-02-05T05:46:21.891Z,14.52
2023-02-05T05:48:53.507Z,13.32
2023-02-05T05:51:20.909Z,14.57
2023-02-05T05:53:47.993Z,14.93
2023-02-05T05:56:15.181Z,11.50
2023-02-05T05:58:42.005Z,13.93
2023-02-05T06:01:09.397Z,19.58
2023-02-05T06:03:36.082Z,15.20
2023-02-05T06:06:04.176Z,13.32
2023-02-05T06:08:30.958Z,17.05
2023-02-05T06:10:57.379Z,16.13
2023-02-05T06:13:23.870Z,17.45
2023-02-05T06:15:50.378Z,14.75
2023-02-05T06:18:17.526Z,14.27
2023-02-05T06:20:44.652Z,15.48
2023-02-05T06:23:12.016Z,17.08
2023-02-05T06:25:38.537Z,14.80
2023-02-05T06:28:05.315Z,13.82
2023-02-05T06:30:31.781Z,18.50
2023-02-05T06:32:58.160Z,17.75
2023-02-05T06:35:24.743Z,14.75
2023-02-05T06:37:51.144Z,17.13
2023-02-05T06:40:18.201Z,19.38
2023-02-05T06:42:45.433Z,17.75
2023-02-05T06:45:11.845Z,22.63
2023-02-05T06:47:38.543Z,15.68
2023-02-05T06:50:06.507Z,13.65
2023-02-05T06:52:33.060Z,13.07
2023-02-05T06:54:59.514Z,12.43
2023-02-05T06:57:26.024Z,13.07
2023-02-05T06:59:52.428Z,14.80
2023-02-05T07:02:18.873Z,13.05
2023-02-05T07:04:45.332Z,13.13
2023-02-05T07:07:11.717Z,13.23
2023-02-05T07:09:38.175Z,11.48
2023-02-05T07:12:04.869Z,12.57
2023-02-05T07:14:31.575Z,13.25
2023-02-05T07:16:58.146Z,12.48
2023-02-05T07:19:24.602Z,13.10
2023-02-05T07:21:51.002Z,12.20
2023-02-05T07:24:17.381Z,13.43
2023-02-05T07:26:45.282Z,15.75
2023-02-05T07:29:11.789Z,12.02
2023-02-05T07:31:38.288Z,12.95
2023-02-05T07:34:04.775Z,16.15
2023-02-05T07:36:31.213Z,17.80
2023-02-05T07:38:57.627Z,16.45
2023-02-05T07:41:24.106Z,22.88
2023-02-05T07:43:51.905Z,17.63
2023-02-05T07:46:19.089Z,16.33
2023-02-05T07:48:45.531Z,20.60
2023-02-05T07:51:20.154Z,17.48
2023-02-05T07:53:47.089Z,18.30
2023-02-05T07:56:14.432Z,17.75
2023-02-05T07:58:41.065Z,17.40
2023-02-05T08:01:07.641Z,22.60
2023-02-05T08:03:34.682Z,29.98
2023-02-05T08:06:08.833Z,19.60
2023-02-05T08:08:35.351Z,18.63
2023-02-05T08:11:04.749Z,19.63
2023-02-05T08:13:31.222Z,18.77
2023-02-05T08:15:57.751Z,19.58
2023-02-05T08:18:24.530Z,23.90
2023-02-05T08:20:54.761Z,19.58
2023-02-05T08:23:21.703Z,24.75
2023-02-05T08:25:48.226Z,23.50
2023-02-05T08:28:14.720Z,22.10
2023-02-05T08:30:41.333Z,19.55
2023-02-05T08:33:07.774Z,19.95
2023-02-05T08:35:34.442Z,20.73
2023-02-05T08:38:00.969Z,26.23
2023-02-05T08:40:27.384Z,25.95
2023-02-05T08:42:57.110Z,25.50
2023-02-05T08:45:24.534Z,26.98
2023-02-05T08:47:51.021Z,25.63
2023-02-05T08:50:17.973Z,22.48
2023-02-05T08:52:44.578Z,22.20
2023-02-05T08:55:11.263Z,19.02
2023-02-05T08:57:37.802Z,20.35
2023-02-05T09:00:05.429Z,20.65
2023-02-05T09:02:32.323Z,22.77
2023-02-05T09:05:08.042Z,27.02
2023-02-05T09:07:35.998Z,25.20
2023-02-05T09:10:02.447Z,23.08
2023-02-05T09:12:28.926Z,26.52
2023-02-05T09:14:55.365Z,23.05
2023-02-05T09:17:21.800Z,21.20
2023-02-05T09:19:48.229Z,20.73
2023-02-05T09:22:14.733Z,19.55
2023-02-05T09:24:41.170Z,20.98
2023-02-05T09:27:07.716Z,21.88
2023-02-05T09:29:34.148Z,22.33
2023-02-05T09:32:00.718Z,22.42
2023-02-05T09:34:27.141Z,24.42
2023-02-05T09:36:53.597Z,26.08
2023-02-05T09:39:52.299Z,27.52
2023-02-05T09:42:32.911Z,26.27
2023-02-05T09:47:37.722Z,28.15
2023-02-05T09:50:29.349Z,32.78
2023-02-05T09:53:05.980Z,29.73
2023-02-05T09:55:44.838Z,31.05
2023-02-05T09:58:15.227Z,29.52
2023-02-05T10:00:51.589Z,25.02
2023-02-05T10:03:36.231Z,27.60
2023-02-05T10:06:31.842Z,27.80
2023-02-05T10:09:19.109Z,23.60
2023-02-05T10:11:55.099Z,28.73
2023-02-05T10:14:41.035Z,32.10
2023-02-05T10:17:42.858Z,32.72
2023-02-05T10:20:18.915Z,28.05
2023-02-05T10:22:54.440Z,28.08
2023-02-05T10:25:45.274Z,27.02
2023-02-05T10:28:33.331Z,27.17
2023-02-05T10:31:24.019Z,27.38
2023-02-05T10:33:56.816Z,26.58
2023-02-05T10:36:25.744Z,29.13
2023-02-05T10:38:54.778Z,30.75
2023-02-05T10:41:36.674Z,32.58
2023-02-05T10:44:09.010Z,30.83
2023-02-05T10:46:37.371Z,26.35
2023-02-05T10:49:13.494Z,29.00
2023-02-05T10:51:42.262Z,31.35
2023-02-05T10:54:19.163Z,31.92
2023-02-05T10:56:45.659Z,36.63
2023-02-05T10:59:27.955Z,32.03
2023-02-05T11:01:56.068Z,31.95
2023-02-05T11:04:41.916Z,35.13
2023-02-05T11:07:13.444Z,31.08
2023-02-05T11:09:40.073Z,37.03
2023-02-05T11:12:17.978Z,33.45
2023-02-05T11:14:45.788Z,34.00
2023-02-05T11:17:38.688Z,36.47
2023-02-05T11:22:39.356Z,38.50
2023-02-05T11:25:05.631Z,36.17
2023-02-05T11:27:32.859Z,39.25
2023-02-05T11:33:26.780Z,38.97
2023-02-05T11:35:59.396Z,38.13
2023-02-05T11:38:31.618Z,39.63
2023-02-05T11:41:00.964Z,39.40
2023-02-05T11:43:40.610Z,40.97
2023-02-05T11:46:10.182Z,43.55
2023-02-05T11:48:51.750Z,46.90
2023-02-05T11:51:29.784Z,38.97
2023-02-05T11:53:58.623Z,43.55
2023-02-05T11:56:26.009Z,44.50
2023-02-05T11:59:02.765Z,41.78
2023-02-05T12:01:33.774Z,39.80
2023-02-05T12:04:04.302Z,37.28
2023-02-05T12:06:38.590Z,39.15
2023-02-05T12:09:05.472Z,39.22
2023-02-05T12:12:07.228Z,46.10
2023-02-05T12:14:43.429Z,41.35
2023-02-05T12:17:33.307Z,45.42
2023-02-05T12:20:19.313Z,39.20
2023-02-05T12:23:01.901Z,42.13
2023-02-05T12:25:51.080Z,39.15
2023-02-05T12:28:17.440Z,39.65
2023-02-05T12:30:57.873Z,44.10
2023-02-05T12:33:33.132Z,39.85
2023-02-05T12:36:10.567Z,42.30
2023-02-05T12:38:55.644Z,43.35
2023-02-05T12:41:44.019Z,45.05
2023-02-05T12:44:42.665Z,43.20
2023-02-05T12:47:30.403Z,50.20
2023-02-05T12:50:07.816Z,45.42
2023-02-05T12:53:00.368Z,52.10
2023-02-05T12:55:41.358Z,49.30
2023-02-05T12:58:10.807Z,59.42
2023-02-05T13:01:10.044Z,54.58
2023-02-05T13:03:45.394Z,53.10
2023-02-05T13:06:42.149Z,53.25
2023-02-05T13:09:16.845Z,56.10
2023-02-05T13:11:47.587Z,51.78
2023-02-05T13:14:17.785Z,52.65
2023-02-05T13:16:48.409Z,52.53
2023-02-05T13:19:26.059Z,54.00
2023-02-05T13:22:15.505Z,50.92
2023-02-05T13:25:05.663Z,51.55
2023-02-05T13:27:55.351Z,46.38
2023-02-05T13:30:28.676Z,46.85
2023-02-05T13:32:58.167Z,42.95
2023-02-05T13:35:26.856Z,42.47
2023-02-05T13:38:12.080Z,42.85
2023-02-05T13:40:55.313Z,43.78
2023-02-05T13:43:31.118Z,33.83
2023-02-05T13:46:06.358Z,27.33
2023-02-05T13:49:11.181Z,31.40
2023-02-05T13:51:43.119Z,33.55
2023-02-05T13:54:35.099Z,35.42
2023-02-05T13:57:21.277Z,22.97
2023-02-05T13:59:52.954Z,36.78
2023-02-05T14:02:33.553Z,37.10
2023-02-05T14:05:01.826Z,36.58
2023-02-05T14:07:31.526Z,41.08
2023-02-05T14:10:00.891Z,45.80
2023-02-05T14:12:29.302Z,47.65
2023-02-05T14:15:17.508Z,50.33
2023-02-05T14:17:43.803Z,46.90
2023-02-05T14:20:25.554Z,54.53
2023-02-05T14:22:53.611Z,49.90
2023-02-05T14:25:35.509Z,48.78
2023-02-05T14:28:03.018Z,48.28
2023-02-05T14:30:33.277Z,50.20
2023-02-05T14:33:05.672Z,48.88
2023-02-05T14:35:40.018Z,48.45
2023-02-05T14:38:21.501Z,51.90
2023-02-05T14:41:00.892Z,55.72
2023-02-05T14:43:32.421Z,56.40
2023-02-05T14:46:04.247Z,56.88
2023-02-05T14:48:33.568Z,58.33
2023-02-05T14:51:06.904Z,56.65
2023-02-05T14:53:34.524Z,54.65
2023-02-05T14:56:01.390Z,56.08
2023-02-05T14:58:32.298Z,57.17
2023-02-05T15:01:26.499Z,53.25
2023-02-05T15:03:53.283Z,57.80
2023-02-05T15:06:20.871Z,59.38
2023-02-05T15:08:51.859Z,51.80
2023-02-05T15:11:26.586Z,48.75
2023-02-05T15:14:35.376Z,52.00
2023-02-05T15:17:07.620Z,50.05
2023-02-05T15:19:46.882Z,58.40
2023-02-05T15:22:31.140Z,54.53
2023-02-05T15:24:58.106Z,47.03
2023-02-05T15:27:41.705Z,55.05
2023-02-05T15:30:09.662Z,50.60
2023-02-05T15:32:45.575Z,53.53
2023-02-05T15:35:15.200Z,52.97
2023-02-05T15:38:02.253Z,56.15
2023-02-05T15:40:33.145Z,56.42
2023-02-05T15:43:01.930Z,57.97
2023-02-05T15:45:34.389Z,57.20
2023-02-05T15:48:10.038Z,61.78
2023-02-05T15:51:00.558Z,54.90
2023-02-05T15:53:32.793Z,50.85
2023-02-05T15:56:15.938Z,53.28
2023-02-05T15:58:49.966Z,51.47
2023-02-05T16:01:24.769Z,49.38
2023-02-05T16:03:51.251Z,51.65
2023-02-05T16:06:22.298Z,48.00
2023-02-05T16:08:51.340Z,46.03
2023-02-05T16:11:32.444Z,49.42
2023-02-05T16:14:16.534Z,53.63
2023-02-05T16:17:11.111Z,53.80
2023-02-05T16:19:46.655Z,58.13
2023-02-05T16:22:22.178Z,54.03
2023-02-05T16:24:49.576Z,55.67
2023-02-05T16:27:20.749Z,54.00
2023-02-05T16:29:54.899Z,58.03
2023-02-05T16:32:27.417Z,52.22
2023-02-05T16:37:21.534Z,53.40
2023-02-05T16:39:55.488Z,53.35
2023-02-05T16:42:38.501Z,55.63
2023-02-05T16:45:07.854Z,59.35
2023-02-05T16:47:35.309Z,59.15
2023-02-05T16:50:02.015Z,62.72
2023-02-05T16:52:34.334Z,65.05
2023-02-05T16:55:26.888Z,71.07
2023-02-05T16:57:54.914Z,71.82
2023-02-05T17:00:27.683Z,72.65
2023-02-05T17:03:07.252Z,76.15
2023-02-05T17:05:35.727Z,84.20
2023-02-05T17:08:04.750Z,72.63
2023-02-05T17:10:31.255Z,78.07
2023-02-05T17:13:04.894Z,73.25
2023-02-05T17:15:36.477Z,84.22
2023-02-05T17:18:26.717Z,75.77
2023-02-05T17:21:24.968Z,73.60
2023-02-05T17:23:52.589Z,66.75
2023-02-05T17:26:19.634Z,72.63
2023-02-05T17:28:51.282Z,71.32
2023-02-05T17:31:17.860Z,74.33
2023-02-05T17:33:44.390Z,75.63
2023-02-05T17:36:16.296Z,68.95
2023-02-05T17:38:42.759Z,73.60
2023-02-05T17:41:34.940Z,71.60
2023-02-05T17:44:01.326Z,72.28
2023-02-05T17:46:27.727Z,69.55
2023-02-05T17:48:54.115Z,70.88
2023-02-05T17:51:21.942Z,65.13
2023-02-05T17:53:49.213Z,57.70
2023-02-05T17:56:16.014Z,59.38
2023-02-05T17:58:42.393Z,63.20
2023-02-05T18:01:11.688Z,56.83
2023-02-05T18:03:38.742Z,62.35
2023-02-05T18:06:05.527Z,55.63
2023-02-05T18:08:31.970Z,57.15
2023-02-05T18:10:58.342Z,59.05
2023-02-05T18:13:24.737Z,66.25
2023-02-05T18:15:52.092Z,54.85
2023-02-05T18:18:18.810Z,56.75
2023-02-05T18:20:45.175Z,53.58
2023-02-05T18:23:14.149Z,53.50
2023-02-05T18:25:45.029Z,49.88
2023-02-05T18:28:11.608Z,52.08
2023-02-05T18:30:39.486Z,53.28
2023-02-05T18:33:07.194Z,55.50
2023-02-05T18:35:33.691Z,58.22
2023-02-05T18:38:00.178Z,59.22
2023-02-05T18:40:26.548Z,64.45
2023-02-05T18:42:54.865Z,70.68
2023-02-05T18:45:21.263Z,71.45
2023-02-05T18:47:48.374Z,73.85
2023-02-05T18:50:16.316Z,72.93
2023-02-05T18:52:42.740Z,67.70
2023-02-05T18:55:09.108Z,77.80
2023-02-05T18:57:35.535Z,73.07
2023-02-05T19:00:01.924Z,70.75
2023-02-05T19:02:28.318Z,76.15
2023-02-05T19:04:56.191Z,74.18
2023-02-05T19:07:24.691Z,63.67
2023-02-05T19:09:51.432Z,69.70
2023-02-05T19:12:18.847Z,67.15
2023-02-05T19:14:45.220Z,69.35
2023-02-05T19:17:11.928Z,69.65
2023-02-05T19:19:38.564Z,65.32
2023-02-05T19:22:06.420Z,62.17
2023-02-05T19:24:33.423Z,63.60
2023-02-05T19:26:59.974Z,60.33
2023-02-05T19:29:26.814Z,59.78
2023-02-05T19:31:53.758Z,56.47
2023-02-05T19:34:21.974Z,64.78
2023-02-05T19:36:48.459Z,58.25
2023-02-05T19:39:15.263Z,57.85
2023-02-05T19:41:45.138Z,55.75
2023-02-05T19:44:11.561Z,59.67
2023-02-05T19:46:44.226Z,56.03
2023-02-05T19:49:21.130Z,53.63
2023-02-05T19:51:49.665Z,50.15
2023-02-05T19:54:16.590Z,52.13
2023-02-05T19:56:44.108Z,48.97
2023-02-05T19:59:11.370Z,46.78
2023-02-05T20:01:39.770Z,51.08
2023-02-05T20:04:09.157Z,45.53
2023-02-05T20:06:36.095Z,46.72
2023-02-05T20:09:05.860Z,45.65
2023-02-05T20:11:32.257Z,40.53
2023-02-05T20:14:01.872Z,43.75
2023-02-05T20:16:28.413Z,41.53
2023-02-05T20:18:57.641Z,54.58
2023-02-05T20:21:25.038Z,50.10
2023-02-05T20:23:51.656Z,53.92
2023-02-05T20:26:22.135Z,56.05
2023-02-05T20:29:11.210Z,60.95
2023-02-05T20:31:42.828Z,63.92
2023-02-05T20:34:18.576Z,60.35
2023-02-05T20:36:46.653Z,68.20
2023-02-05T20:39:13.143Z,70.50
2023-02-05T20:41:39.843Z,76.53
2023-02-05T20:44:08.644Z,71.70
2023-02-05T20:46:35.550Z,65.85
2023-02-05T20:49:03.371Z,60.58
2023-02-05T20:51:30.560Z,67.65
2023-02-05T20:53:58.221Z,71.95
2023-02-05T20:56:25.729Z,68.07
2023-02-05T20:58:52.245Z,67.65
2023-02-05T21:01:24.407Z,70.53
2023-02-05T21:03:53.100Z,71.43
2023-02-05T21:06:21.119Z,76.88
2023-02-05T21:08:48.763Z,74.72
2023-02-05T21:11:16.046Z,72.78
2023-02-05T21:13:43.489Z,74.22
2023-02-05T21:16:10.480Z,74.85
2023-02-05T21:18:38.172Z,76.43
2023-02-05T21:21:06.734Z,76.82
2023-02-05T21:23:33.163Z,79.45
2023-02-05T21:25:59.578Z,80.38
2023-02-05T21:28:26.132Z,79.50
2023-02-05T21:31:00.500Z,76.00
2023-02-05T21:33:26.969Z,75.30
2023-02-05T21:35:53.355Z,78.53
2023-02-05T21:38:19.750Z,73.25
2023-02-05T21:40:46.157Z,72.45
2023-02-05T21:43:12.556Z,79.88
2023-02-05T21:45:40.187Z,70.95
2023-02-05T21:48:06.764Z,76.10
2023-02-05T21:50:33.605Z,66.05
2023-02-05T21:53:00.178Z,68.82
2023-02-05T21:55:26.810Z,73.38
2023-02-05T21:57:53.216Z,65.88
2023-02-05T22:00:19.856Z,70.50
2023-02-05T22:02:46.297Z,69.32
2023-02-05T22:05:12.707Z,70.55
2023-02-05T22:07:39.146Z,63.90
2023-02-05T22:10:05.930Z,63.33
2023-02-05T22:12:34.657Z,57.53
2023-02-05T22:15:01.060Z,54.30
2023-02-05T22:17:27.536Z,57.65
2023-02-05T22:19:53.946Z,59.50
2023-02-05T22:22:20.368Z,63.35
2023-02-05T22:24:46.843Z,54.60
2023-02-05T22:27:13.258Z,53.38
2023-02-05T22:29:39.673Z,57.78
2023-02-05T22:32:06.046Z,65.20
2023-02-05T22:34:32.492Z,62.95
2023-02-05T22:36:59.643Z,59.70
2023-02-05T22:39:26.080Z,56.40
2023-02-05T22:41:52.478Z,61.08
2023-02-05T22:44:18.908Z,64.90
2023-02-05T22:46:45.361Z,54.13
2023-02-05T22:49:13.088Z,53.40
2023-02-05T22:51:40.322Z,55.40
2023-02-05T22:54:09.471Z,50.88
2023-02-05T22:56:35.863Z,43.97
2023-02-05T22:59:03.568Z,41.75
2023-02-05T23:01:34.665Z,42.28
2023-02-05T23:04:02.221Z,37.33
2023-02-05T23:06:32.002Z,42.88
2023-02-05T23:09:05.059Z,36.55
2023-02-05T23:11:32.124Z,41.95
2023-02-05T23:13:59.559Z,36.58
2023-02-05T23:16:38.091Z,35.63
2023-02-05T23:19:08.350Z,35.40
2023-02-05T23:21:35.713Z,32.83
2023-02-05T23:24:02.367Z,35.50
2023-02-05T23:26:32.485Z,38.28
2023-02-05T23:28:59.002Z,34.08
2023-02-05T23:31:25.635Z,35.85
2023-02-05T23:33:53.070Z,33.58
2023-02-05T23:36:19.667Z,30.52
2023-02-05T23:38:46.199Z,32.85
2023-02-05T23:41:12.982Z,34.20
2023-02-05T23:43:40.090Z,31.55
2023-02-05T23:46:07.537Z,31.15
2023-02-05T23:48:34.442Z,37.08
2023-02-05T23:51:01.017Z,32.70
2023-02-05T23:53:27.501Z,34.42
2023-02-05T23:55:54.166Z,31.70
2023-02-05T23:58:23.831Z,29.52
